Sugar Grove, Virginia
Current Conditions -  °F | °C
As of 10:55 PM on Wednesday 22 Oct 2014 (Local Time) from KMKJ Reporting Station
Overcast Overcast  
Wind Chill: 42°   Ceiling: 1800
Heat Index: 46°   Visibility: 10mi
Dew Point: 39°   Wind: 8mph
Humidity: 77%   Direction: 300°WNW
Pressure: 30.19"   Gusts: NA
Location:  36.78°N, 81.41°W
Report Text: KMKJ 230255Z AUTO 30007KT 10SM OVC018 08/04 A3019 RMK AO2 LTG DSNT E T00780040
Loading
Personal Weather Stations






























Interactive Weather Map
Tropical Storm Tracking
New forecast layout! Learn more

10-Day Weather Forecast

Advertisements
Track Severe Weather on mobile